sensor_id;sensor_type;location;lat;lon;timestamp;temperature;humidity
17473;DHT22;8853;52.552;13.356;2022-07-23T00:01:07;29.80;32.20
17473;DHT22;8853;52.552;13.356;2022-07-23T00:03:37;29.80;32.20
17473;DHT22;8853;52.552;13.356;2022-07-23T00:06:05;29.80;32.20
17473;DHT22;8853;52.552;13.356;2022-07-23T00:08:35;29.90;32.10
17473;DHT22;8853;52.552;13.356;2022-07-23T00:11:03;29.80;32.10
17473;DHT22;8853;52.552;13.356;2022-07-23T00:13:31;29.80;32.10
17473;DHT22;8853;52.552;13.356;2022-07-23T00:16:00;29.80;32.00
17473;DHT22;8853;52.552;13.356;2022-07-23T00:18:29;29.80;31.90
17473;DHT22;8853;52.552;13.356;2022-07-23T00:20:57;29.80;31.90
17473;DHT22;8853;52.552;13.356;2022-07-23T00:23:27;29.80;31.90
17473;DHT22;8853;52.552;13.356;2022-07-23T00:25:55;29.80;31.90
17473;DHT22;8853;52.552;13.356;2022-07-23T00:28:24;29.80;31.90
17473;DHT22;8853;52.552;13.356;2022-07-23T00:30:52;29.80;31.80
17473;DHT22;8853;52.552;13.356;2022-07-23T00:33:21;29.80;31.80
17473;DHT22;8853;52.552;13.356;2022-07-23T00:35:50;29.80;31.80
17473;DHT22;8853;52.552;13.356;2022-07-23T00:38:18;29.70;31.70
17473;DHT22;8853;52.552;13.356;2022-07-23T00:40:48;29.70;31.70
17473;DHT22;8853;52.552;13.356;2022-07-23T00:43:16;29.70;31.70
17473;DHT22;8853;52.552;13.356;2022-07-23T00:45:45;29.70;31.70
17473;DHT22;8853;52.552;13.356;2022-07-23T00:48:13;29.70;31.70
17473;DHT22;8853;52.552;13.356;2022-07-23T00:50:42;29.70;31.70
17473;DHT22;8853;52.552;13.356;2022-07-23T00:53:11;29.70;31.70
17473;DHT22;8853;52.552;13.356;2022-07-23T00:55:39;29.70;31.60
17473;DHT22;8853;52.552;13.356;2022-07-23T00:58:08;29.70;31.60
17473;DHT22;8853;52.552;13.356;2022-07-23T01:00:37;29.70;31.60
17473;DHT22;8853;52.552;13.356;2022-07-23T01:03:05;29.70;31.60
17473;DHT22;8853;52.552;13.356;2022-07-23T01:05:34;29.70;31.60
17473;DHT22;8853;52.552;13.356;2022-07-23T01:08:03;29.70;31.60
17473;DHT22;8853;52.552;13.356;2022-07-23T01:10:31;29.70;31.60
17473;DHT22;8853;52.552;13.356;2022-07-23T01:13:04;29.70;31.50
17473;DHT22;8853;52.552;13.356;2022-07-23T01:15:32;29.70;31.60
17473;DHT22;8853;52.552;13.356;2022-07-23T01:18:00;29.70;31.60
17473;DHT22;8853;52.552;13.356;2022-07-23T01:20:29;29.60;31.60
17473;DHT22;8853;52.552;13.356;2022-07-23T01:22:57;29.70;31.60
17473;DHT22;8853;52.552;13.356;2022-07-23T01:25:27;29.70;31.60
17473;DHT22;8853;52.552;13.356;2022-07-23T01:27:55;29.70;31.60
17473;DHT22;8853;52.552;13.356;2022-07-23T01:30:24;29.70;31.60
17473;DHT22;8853;52.552;13.356;2022-07-23T01:32:53;29.60;31.60
17473;DHT22;8853;52.552;13.356;2022-07-23T01:35:21;29.60;31.50
17473;DHT22;8853;52.552;13.356;2022-07-23T01:37:50;29.60;31.50
17473;DHT22;8853;52.552;13.356;2022-07-23T01:40:19;29.60;31.60
17473;DHT22;8853;52.552;13.356;2022-07-23T01:42:47;29.60;31.60
17473;DHT22;8853;52.552;13.356;2022-07-23T01:45:16;29.60;31.60
17473;DHT22;8853;52.552;13.356;2022-07-23T01:47:44;29.60;31.60
17473;DHT22;8853;52.552;13.356;2022-07-23T01:50:13;29.60;31.60
17473;DHT22;8853;52.552;13.356;2022-07-23T01:52:42;29.60;31.60
17473;DHT22;8853;52.552;13.356;2022-07-23T01:55:10;29.60;31.60
17473;DHT22;8853;52.552;13.356;2022-07-23T01:57:39;29.60;31.60
17473;DHT22;8853;52.552;13.356;2022-07-23T02:00:09;29.60;31.60
17473;DHT22;8853;52.552;13.356;2022-07-23T02:02:37;29.50;31.50
17473;DHT22;8853;52.552;13.356;2022-07-23T02:05:06;29.60;31.60
17473;DHT22;8853;52.552;13.356;2022-07-23T02:07:35;29.50;31.50
17473;DHT22;8853;52.552;13.356;2022-07-23T02:10:04;29.50;31.50
17473;DHT22;8853;52.552;13.356;2022-07-23T02:12:32;29.50;31.50
17473;DHT22;8853;52.552;13.356;2022-07-23T02:15:01;29.50;31.50
17473;DHT22;8853;52.552;13.356;2022-07-23T02:17:30;29.50;31.50
17473;DHT22;8853;52.552;13.356;2022-07-23T02:19:59;29.40;31.50
17473;DHT22;8853;52.552;13.356;2022-07-23T02:22:27;29.50;31.50
17473;DHT22;8853;52.552;13.356;2022-07-23T02:24:56;29.50;31.50
17473;DHT22;8853;52.552;13.356;2022-07-23T02:27:24;29.50;31.50
17473;DHT22;8853;52.552;13.356;2022-07-23T02:29:53;29.40;31.50
17473;DHT22;8853;52.552;13.356;2022-07-23T02:32:22;29.40;31.50
17473;DHT22;8853;52.552;13.356;2022-07-23T02:34:50;29.40;31.50
17473;DHT22;8853;52.552;13.356;2022-07-23T02:37:19;29.40;31.50
17473;DHT22;8853;52.552;13.356;2022-07-23T02:39:47;29.40;31.50
17473;DHT22;8853;52.552;13.356;2022-07-23T02:42:16;29.40;31.50
17473;DHT22;8853;52.552;13.356;2022-07-23T02:44:45;29.40;31.50
17473;DHT22;8853;52.552;13.356;2022-07-23T02:47:13;29.40;31.50
17473;DHT22;8853;52.552;13.356;2022-07-23T02:49:42;29.40;31.50
17473;DHT22;8853;52.552;13.356;2022-07-23T02:52:11;29.30;31.50
17473;DHT22;8853;52.552;13.356;2022-07-23T02:54:39;29.40;31.50
17473;DHT22;8853;52.552;13.356;2022-07-23T03:01:28;29.30;31.50
17473;DHT22;8853;52.552;13.356;2022-07-23T03:03:57;29.10;32.00
17473;DHT22;8853;52.552;13.356;2022-07-23T03:06:26;29.10;32.00
17473;DHT22;8853;52.552;13.356;2022-07-23T03:08:54;29.20;31.90
17473;DHT22;8853;52.552;13.356;2022-07-23T03:11:24;29.20;31.70
17473;DHT22;8853;52.552;13.356;2022-07-23T03:13:52;29.20;31.70
17473;DHT22;8853;52.552;13.356;2022-07-23T03:16:21;29.20;31.60
17473;DHT22;8853;52.552;13.356;2022-07-23T03:18:50;29.20;31.50
17473;DHT22;8853;52.552;13.356;2022-07-23T03:21:18;29.20;31.40
17473;DHT22;8853;52.552;13.356;2022-07-23T03:23:47;29.20;31.40
17473;DHT22;8853;52.552;13.356;2022-07-23T03:26:15;29.20;31.40
17473;DHT22;8853;52.552;13.356;2022-07-23T03:28:44;29.20;31.40
17473;DHT22;8853;52.552;13.356;2022-07-23T03:31:13;29.20;31.30
17473;DHT22;8853;52.552;13.356;2022-07-23T03:33:42;29.20;31.20
17473;DHT22;8853;52.552;13.356;2022-07-23T03:36:11;29.20;31.10
17473;DHT22;8853;52.552;13.356;2022-07-23T03:38:39;29.20;31.10
17473;DHT22;8853;52.552;13.356;2022-07-23T03:41:08;29.20;31.00
17473;DHT22;8853;52.552;13.356;2022-07-23T03:43:37;29.20;31.00
17473;DHT22;8853;52.552;13.356;2022-07-23T03:46:05;29.20;30.90
17473;DHT22;8853;52.552;13.356;2022-07-23T03:48:34;29.10;30.80
17473;DHT22;8853;52.552;13.356;2022-07-23T03:51:02;29.10;30.60
17473;DHT22;8853;52.552;13.356;2022-07-23T03:53:31;29.10;30.40
17473;DHT22;8853;52.552;13.356;2022-07-23T03:56:00;29.10;30.40
17473;DHT22;8853;52.552;13.356;2022-07-23T03:58:29;29.00;30.20
17473;DHT22;8853;52.552;13.356;2022-07-23T04:00:58;29.00;30.20
17473;DHT22;8853;52.552;13.356;2022-07-23T04:03:26;29.00;30.10
17473;DHT22;8853;52.552;13.356;2022-07-23T04:05:55;29.00;29.90
17473;DHT22;8853;52.552;13.356;2022-07-23T04:08:24;29.00;29.80
17473;DHT22;8853;52.552;13.356;2022-07-23T04:10:52;29.00;29.70
17473;DHT22;8853;52.552;13.356;2022-07-23T04:13:22;28.90;29.10
17473;DHT22;8853;52.552;13.356;2022-07-23T04:15:50;28.90;29.10
17473;DHT22;8853;52.552;13.356;2022-07-23T04:18:19;28.80;29.10
17473;DHT22;8853;52.552;13.356;2022-07-23T04:20:47;28.80;29.80
17473;DHT22;8853;52.552;13.356;2022-07-23T04:23:16;28.70;29.20
17473;DHT22;8853;52.552;13.356;2022-07-23T04:25:45;28.70;29.30
17473;DHT22;8853;52.552;13.356;2022-07-23T04:28:13;28.60;29.40
17473;DHT22;8853;52.552;13.356;2022-07-23T04:30:42;28.60;29.70
17473;DHT22;8853;52.552;13.356;2022-07-23T04:33:10;28.60;29.90
17473;DHT22;8853;52.552;13.356;2022-07-23T04:35:39;28.60;30.10
17473;DHT22;8853;52.552;13.356;2022-07-23T04:38:08;28.60;30.20
17473;DHT22;8853;52.552;13.356;2022-07-23T04:40:36;28.60;30.30
17473;DHT22;8853;52.552;13.356;2022-07-23T04:43:05;28.60;30.40
17473;DHT22;8853;52.552;13.356;2022-07-23T04:45:34;28.60;30.40
17473;DHT22;8853;52.552;13.356;2022-07-23T04:48:03;28.70;30.50
17473;DHT22;8853;52.552;13.356;2022-07-23T04:50:31;28.70;30.50
17473;DHT22;8853;52.552;13.356;2022-07-23T04:53:00;28.80;30.50
17473;DHT22;8853;52.552;13.356;2022-07-23T04:55:28;28.70;30.40
17473;DHT22;8853;52.552;13.356;2022-07-23T04:57:57;28.80;30.40
17473;DHT22;8853;52.552;13.356;2022-07-23T05:00:26;28.80;30.40
17473;DHT22;8853;52.552;13.356;2022-07-23T05:02:54;28.80;30.30
17473;DHT22;8853;52.552;13.356;2022-07-23T05:05:24;28.90;30.30
17473;DHT22;8853;52.552;13.356;2022-07-23T05:07:52;28.90;30.30
17473;DHT22;8853;52.552;13.356;2022-07-23T05:10:21;28.90;30.30
17473;DHT22;8853;52.552;13.356;2022-07-23T05:12:49;28.90;30.30
17473;DHT22;8853;52.552;13.356;2022-07-23T05:15:18;28.90;30.30
17473;DHT22;8853;52.552;13.356;2022-07-23T05:17:47;28.90;30.20
17473;DHT22;8853;52.552;13.356;2022-07-23T05:20:15;29.00;30.70
17473;DHT22;8853;52.552;13.356;2022-07-23T05:22:44;29.00;30.70
17473;DHT22;8853;52.552;13.356;2022-07-23T05:25:12;29.00;30.70
17473;DHT22;8853;52.552;13.356;2022-07-23T05:27:41;29.10;30.70
17473;DHT22;8853;52.552;13.356;2022-07-23T05:30:10;29.10;30.60
17473;DHT22;8853;52.552;13.356;2022-07-23T05:32:39;29.10;30.60
17473;DHT22;8853;52.552;13.356;2022-07-23T05:35:08;29.10;30.60
17473;DHT22;8853;52.552;13.356;2022-07-23T05:37:36;29.10;30.60
17473;DHT22;8853;52.552;13.356;2022-07-23T05:40:07;29.20;30.60
17473;DHT22;8853;52.552;13.356;2022-07-23T05:42:35;29.10;30.60
17473;DHT22;8853;52.552;13.356;2022-07-23T05:45:04;29.20;30.60
17473;DHT22;8853;52.552;13.356;2022-07-23T05:47:42;29.20;30.50
17473;DHT22;8853;52.552;13.356;2022-07-23T05:50:11;29.20;30.50
17473;DHT22;8853;52.552;13.356;2022-07-23T05:52:39;29.20;30.50
17473;DHT22;8853;52.552;13.356;2022-07-23T05:55:08;29.20;30.60
17473;DHT22;8853;52.552;13.356;2022-07-23T05:57:36;29.30;30.50
17473;DHT22;8853;52.552;13.356;2022-07-23T06:00:07;29.30;30.60
17473;DHT22;8853;52.552;13.356;2022-07-23T06:02:35;29.30;30.50
17473;DHT22;8853;52.552;13.356;2022-07-23T06:05:04;29.30;30.50
17473;DHT22;8853;52.552;13.356;2022-07-23T06:07:32;29.30;30.50
17473;DHT22;8853;52.552;13.356;2022-07-23T06:10:02;29.30;30.50
17473;DHT22;8853;52.552;13.356;2022-07-23T06:12:30;29.30;30.50
17473;DHT22;8853;52.552;13.356;2022-07-23T06:14:59;29.40;30.40
17473;DHT22;8853;52.552;13.356;2022-07-23T06:17:28;29.30;30.40
17473;DHT22;8853;52.552;13.356;2022-07-23T06:19:56;29.40;30.40
17473;DHT22;8853;52.552;13.356;2022-07-23T06:22:25;29.40;30.50
17473;DHT22;8853;52.552;13.356;2022-07-23T06:24:53;29.40;30.40
17473;DHT22;8853;52.552;13.356;2022-07-23T06:27:22;29.40;30.40
17473;DHT22;8853;52.552;13.356;2022-07-23T06:29:50;29.40;30.40
17473;DHT22;8853;52.552;13.356;2022-07-23T06:32:19;29.40;30.40
17473;DHT22;8853;52.552;13.356;2022-07-23T06:34:48;29.40;30.40
17473;DHT22;8853;52.552;13.356;2022-07-23T06:37:16;29.50;30.40
17473;DHT22;8853;52.552;13.356;2022-07-23T06:39:45;29.50;30.40
17473;DHT22;8853;52.552;13.356;2022-07-23T06:42:14;29.50;30.30
17473;DHT22;8853;52.552;13.356;2022-07-23T06:44:42;29.50;30.40
17473;DHT22;8853;52.552;13.356;2022-07-23T06:47:11;29.50;30.40
17473;DHT22;8853;52.552;13.356;2022-07-23T06:49:40;29.50;30.30
17473;DHT22;8853;52.552;13.356;2022-07-23T06:52:09;29.50;30.30
17473;DHT22;8853;52.552;13.356;2022-07-23T06:54:37;29.50;30.30
17473;DHT22;8853;52.552;13.356;2022-07-23T06:57:06;29.50;30.40
17473;DHT22;8853;52.552;13.356;2022-07-23T06:59:35;29.50;30.30
17473;DHT22;8853;52.552;13.356;2022-07-23T07:02:03;29.60;30.30
17473;DHT22;8853;52.552;13.356;2022-07-23T07:04:32;29.50;30.40
17473;DHT22;8853;52.552;13.356;2022-07-23T07:07:01;29.60;30.30
17473;DHT22;8853;52.552;13.356;2022-07-23T07:09:29;29.60;30.30
17473;DHT22;8853;52.552;13.356;2022-07-23T07:11:58;29.60;30.90
17473;DHT22;8853;52.552;13.356;2022-07-23T07:14:26;29.60;30.30
17473;DHT22;8853;52.552;13.356;2022-07-23T07:16:55;29.60;30.30
17473;DHT22;8853;52.552;13.356;2022-07-23T07:19:24;29.60;30.90
17473;DHT22;8853;52.552;13.356;2022-07-23T07:21:52;29.60;30.30
17473;DHT22;8853;52.552;13.356;2022-07-23T07:24:22;29.70;30.30
17473;DHT22;8853;52.552;13.356;2022-07-23T07:26:50;29.70;30.30
17473;DHT22;8853;52.552;13.356;2022-07-23T07:29:19;29.70;30.30
17473;DHT22;8853;52.552;13.356;2022-07-23T07:31:48;29.60;30.30
17473;DHT22;8853;52.552;13.356;2022-07-23T07:34:17;29.70;30.30
17473;DHT22;8853;52.552;13.356;2022-07-23T07:36:45;29.70;30.30
17473;DHT22;8853;52.552;13.356;2022-07-23T07:39:14;29.70;30.30
17473;DHT22;8853;52.552;13.356;2022-07-23T07:41:43;29.70;30.20
17473;DHT22;8853;52.552;13.356;2022-07-23T07:44:11;29.70;30.20
17473;DHT22;8853;52.552;13.356;2022-07-23T07:46:40;29.70;30.30
17473;DHT22;8853;52.552;13.356;2022-07-23T07:49:09;29.70;30.20
17473;DHT22;8853;52.552;13.356;2022-07-23T07:51:37;29.70;30.20
17473;DHT22;8853;52.552;13.356;2022-07-23T07:54:06;29.70;30.20
17473;DHT22;8853;52.552;13.356;2022-07-23T07:56:34;29.70;30.20
17473;DHT22;8853;52.552;13.356;2022-07-23T07:59:03;29.70;30.20
17473;DHT22;8853;52.552;13.356;2022-07-23T08:01:32;29.80;30.20
17473;DHT22;8853;52.552;13.356;2022-07-23T08:04:00;29.80;30.20
17473;DHT22;8853;52.552;13.356;2022-07-23T08:06:29;29.80;30.20
17473;DHT22;8853;52.552;13.356;2022-07-23T08:08:58;29.80;30.20
17473;DHT22;8853;52.552;13.356;2022-07-23T08:11:26;29.80;30.20
17473;DHT22;8853;52.552;13.356;2022-07-23T08:13:55;29.80;30.20
17473;DHT22;8853;52.552;13.356;2022-07-23T08:16:24;29.80;30.20
17473;DHT22;8853;52.552;13.356;2022-07-23T08:18:53;29.80;30.20
17473;DHT22;8853;52.552;13.356;2022-07-23T08:21:21;29.80;30.20
17473;DHT22;8853;52.552;13.356;2022-07-23T08:23:50;29.80;30.20
17473;DHT22;8853;52.552;13.356;2022-07-23T08:26:19;29.80;30.20
17473;DHT22;8853;52.552;13.356;2022-07-23T08:28:47;29.90;30.20
17473;DHT22;8853;52.552;13.356;2022-07-23T08:31:16;29.90;30.20
17473;DHT22;8853;52.552;13.356;2022-07-23T08:33:45;29.90;30.20
17473;DHT22;8853;52.552;13.356;2022-07-23T08:36:14;29.90;30.20
17473;DHT22;8853;52.552;13.356;2022-07-23T08:38:43;29.90;30.10
17473;DHT22;8853;52.552;13.356;2022-07-23T08:41:12;29.90;30.80
17473;DHT22;8853;52.552;13.356;2022-07-23T08:43:40;29.90;30.20
17473;DHT22;8853;52.552;13.356;2022-07-23T08:46:09;30.00;30.50
17473;DHT22;8853;52.552;13.356;2022-07-23T08:48:37;29.90;30.10
17473;DHT22;8853;52.552;13.356;2022-07-23T08:51:06;29.90;30.10
17473;DHT22;8853;52.552;13.356;2022-07-23T08:53:41;29.90;30.10
17473;DHT22;8853;52.552;13.356;2022-07-23T08:56:14;29.90;30.20
17473;DHT22;8853;52.552;13.356;2022-07-23T08:58:44;29.90;30.20
17473;DHT22;8853;52.552;13.356;2022-07-23T09:01:12;29.90;30.20
17473;DHT22;8853;52.552;13.356;2022-07-23T09:03:41;30.00;30.50
17473;DHT22;8853;52.552;13.356;2022-07-23T09:06:10;30.00;30.50
17473;DHT22;8853;52.552;13.356;2022-07-23T09:08:39;30.00;30.50
17473;DHT22;8853;52.552;13.356;2022-07-23T09:11:08;30.00;31.20
17473;DHT22;8853;52.552;13.356;2022-07-23T09:16:26;30.00;30.50
17473;DHT22;8853;52.552;13.356;2022-07-23T09:19:05;30.00;30.50
17473;DHT22;8853;52.552;13.356;2022-07-23T09:21:38;30.00;30.60
17473;DHT22;8853;52.552;13.356;2022-07-23T09:24:07;30.00;30.60
17473;DHT22;8853;52.552;13.356;2022-07-23T09:29:20;30.00;30.60
17473;DHT22;8853;52.552;13.356;2022-07-23T09:31:54;30.00;30.60
17473;DHT22;8853;52.552;13.356;2022-07-23T09:34:26;30.00;30.60
17473;DHT22;8853;52.552;13.356;2022-07-23T09:37:16;30.00;30.60
17473;DHT22;8853;52.552;13.356;2022-07-23T09:39:44;30.10;30.60
17473;DHT22;8853;52.552;13.356;2022-07-23T09:42:22;30.00;30.70
17473;DHT22;8853;52.552;13.356;2022-07-23T09:44:50;30.00;30.70
17473;DHT22;8853;52.552;13.356;2022-07-23T09:47:18;30.00;30.60
17473;DHT22;8853;52.552;13.356;2022-07-23T09:50:09;30.00;30.60
17473;DHT22;8853;52.552;13.356;2022-07-23T09:52:46;30.10;30.60
17473;DHT22;8853;52.552;13.356;2022-07-23T09:55:15;30.00;30.60
17473;DHT22;8853;52.552;13.356;2022-07-23T09:57:44;30.00;31.30
17473;DHT22;8853;52.552;13.356;2022-07-23T10:00:13;30.00;30.60
17473;DHT22;8853;52.552;13.356;2022-07-23T10:02:41;30.10;30.60
17473;DHT22;8853;52.552;13.356;2022-07-23T10:05:10;30.10;30.50
17473;DHT22;8853;52.552;13.356;2022-07-23T10:07:39;30.10;30.50
17473;DHT22;8853;52.552;13.356;2022-07-23T10:10:08;30.20;30.50
17473;DHT22;8853;52.552;13.356;2022-07-23T10:12:37;30.20;30.50
17473;DHT22;8853;52.552;13.356;2022-07-23T10:15:12;30.20;30.40
17473;DHT22;8853;52.552;13.356;2022-07-23T10:17:41;30.20;30.50
17473;DHT22;8853;52.552;13.356;2022-07-23T10:20:10;30.20;30.40
17473;DHT22;8853;52.552;13.356;2022-07-23T10:22:42;30.20;30.40
17473;DHT22;8853;52.552;13.356;2022-07-23T10:28:13;30.20;30.40
17473;DHT22;8853;52.552;13.356;2022-07-23T10:30:51;30.20;30.40
17473;DHT22;8853;52.552;13.356;2022-07-23T10:36:22;30.20;30.60
17473;DHT22;8853;52.552;13.356;2022-07-23T10:39:03;30.10;30.70
17473;DHT22;8853;52.552;13.356;2022-07-23T10:41:37;30.10;30.70
17473;DHT22;8853;52.552;13.356;2022-07-23T10:46:36;30.10;30.60
17473;DHT22;8853;52.552;13.356;2022-07-23T10:49:27;30.20;30.60
17473;DHT22;8853;52.552;13.356;2022-07-23T10:57:26;30.20;30.60
17473;DHT22;8853;52.552;13.356;2022-07-23T11:02:32;30.20;30.60
17473;DHT22;8853;52.552;13.356;2022-07-23T11:05:06;30.30;30.60
17473;DHT22;8853;52.552;13.356;2022-07-23T11:07:34;30.20;30.50
17473;DHT22;8853;52.552;13.356;2022-07-23T11:10:02;30.30;30.50
17473;DHT22;8853;52.552;13.356;2022-07-23T11:12:31;30.30;30.50
17473;DHT22;8853;52.552;13.356;2022-07-23T11:15:06;30.30;30.40
17473;DHT22;8853;52.552;13.356;2022-07-23T11:17:36;30.30;30.40
17473;DHT22;8853;52.552;13.356;2022-07-23T11:27:51;30.40;30.40
17473;DHT22;8853;52.552;13.356;2022-07-23T11:35:42;30.30;30.40
17473;DHT22;8853;52.552;13.356;2022-07-23T11:38:18;30.30;30.40
17473;DHT22;8853;52.552;13.356;2022-07-23T11:40:53;30.40;30.40
17473;DHT22;8853;52.552;13.356;2022-07-23T11:43:21;30.30;30.40
17473;DHT22;8853;52.552;13.356;2022-07-23T11:45:53;30.40;30.40
17473;DHT22;8853;52.552;13.356;2022-07-23T11:48:25;30.40;30.40
17473;DHT22;8853;52.552;13.356;2022-07-23T11:50:53;30.40;30.40
17473;DHT22;8853;52.552;13.356;2022-07-23T11:53:34;30.40;30.30
17473;DHT22;8853;52.552;13.356;2022-07-23T11:55:53;30.40;30.30
17473;DHT22;8853;52.552;13.356;2022-07-23T11:58:21;30.40;30.30
17473;DHT22;8853;52.552;13.356;2022-07-23T12:00:50;30.40;30.30
17473;DHT22;8853;52.552;13.356;2022-07-23T12:03:19;30.40;30.30
17473;DHT22;8853;52.552;13.356;2022-07-23T12:05:47;30.40;30.30
17473;DHT22;8853;52.552;13.356;2022-07-23T12:08:16;30.50;30.20
17473;DHT22;8853;52.552;13.356;2022-07-23T12:10:51;30.50;30.30
17473;DHT22;8853;52.552;13.356;2022-07-23T12:13:23;30.50;30.20
17473;DHT22;8853;52.552;13.356;2022-07-23T12:15:52;30.50;30.20
17473;DHT22;8853;52.552;13.356;2022-07-23T12:18:22;30.50;30.20
17473;DHT22;8853;52.552;13.356;2022-07-23T12:20:56;30.50;30.20
17473;DHT22;8853;52.552;13.356;2022-07-23T12:23:27;30.50;30.20
17473;DHT22;8853;52.552;13.356;2022-07-23T12:26:00;30.50;30.20
17473;DHT22;8853;52.552;13.356;2022-07-23T12:28:29;30.50;30.20
17473;DHT22;8853;52.552;13.356;2022-07-23T12:30:57;30.50;30.20
17473;DHT22;8853;52.552;13.356;2022-07-23T12:35:58;30.50;30.20
17473;DHT22;8853;52.552;13.356;2022-07-23T12:38:27;30.50;30.20
17473;DHT22;8853;52.552;13.356;2022-07-23T12:40:58;30.50;30.10
17473;DHT22;8853;52.552;13.356;2022-07-23T12:43:33;30.60;30.60
17473;DHT22;8853;52.552;13.356;2022-07-23T12:46:14;30.60;30.20
17473;DHT22;8853;52.552;13.356;2022-07-23T12:51:24;30.50;30.20
17473;DHT22;8853;52.552;13.356;2022-07-23T12:53:51;30.50;30.20
17473;DHT22;8853;52.552;13.356;2022-07-23T12:56:26;30.50;30.20
17473;DHT22;8853;52.552;13.356;2022-07-23T13:01:25;30.50;30.80
17473;DHT22;8853;52.552;13.356;2022-07-23T13:04:03;30.60;30.20
17473;DHT22;8853;52.552;13.356;2022-07-23T13:06:34;30.60;30.10
17473;DHT22;8853;52.552;13.356;2022-07-23T13:09:03;30.60;30.30
17473;DHT22;8853;52.552;13.356;2022-07-23T13:11:31;30.50;30.20
17473;DHT22;8853;52.552;13.356;2022-07-23T13:14:00;30.60;30.10
17473;DHT22;8853;52.552;13.356;2022-07-23T13:16:29;30.60;30.10
17473;DHT22;8853;52.552;13.356;2022-07-23T13:18:58;30.60;30.10
17473;DHT22;8853;52.552;13.356;2022-07-23T13:21:26;30.60;30.10
17473;DHT22;8853;52.552;13.356;2022-07-23T13:23:55;30.70;30.00
17473;DHT22;8853;52.552;13.356;2022-07-23T13:26:23;30.60;30.00
17473;DHT22;8853;52.552;13.356;2022-07-23T13:28:52;30.70;30.00
17473;DHT22;8853;52.552;13.356;2022-07-23T13:31:20;30.60;30.00
17473;DHT22;8853;52.552;13.356;2022-07-23T13:33:49;30.70;30.00
17473;DHT22;8853;52.552;13.356;2022-07-23T13:36:18;30.60;30.00
17473;DHT22;8853;52.552;13.356;2022-07-23T13:38:47;30.70;30.00
17473;DHT22;8853;52.552;13.356;2022-07-23T13:41:16;30.70;30.00
17473;DHT22;8853;52.552;13.356;2022-07-23T13:43:44;30.70;30.00
17473;DHT22;8853;52.552;13.356;2022-07-23T13:46:13;30.70;30.00
17473;DHT22;8853;52.552;13.356;2022-07-23T13:48:41;30.70;30.00
17473;DHT22;8853;52.552;13.356;2022-07-23T13:51:10;30.70;30.00
17473;DHT22;8853;52.552;13.356;2022-07-23T13:53:39;30.70;29.90
17473;DHT22;8853;52.552;13.356;2022-07-23T13:56:07;30.70;29.90
17473;DHT22;8853;52.552;13.356;2022-07-23T13:58:36;30.70;29.90
17473;DHT22;8853;52.552;13.356;2022-07-23T14:01:05;30.70;29.90
17473;DHT22;8853;52.552;13.356;2022-07-23T14:03:33;30.70;30.00
17473;DHT22;8853;52.552;13.356;2022-07-23T14:06:02;30.70;30.00
17473;DHT22;8853;52.552;13.356;2022-07-23T14:08:30;30.70;29.90
17473;DHT22;8853;52.552;13.356;2022-07-23T14:10:59;30.70;29.90
17473;DHT22;8853;52.552;13.356;2022-07-23T14:13:28;30.70;29.90
17473;DHT22;8853;52.552;13.356;2022-07-23T14:15:56;30.70;29.90
17473;DHT22;8853;52.552;13.356;2022-07-23T14:18:25;30.80;29.90
17473;DHT22;8853;52.552;13.356;2022-07-23T14:20:53;30.80;29.90
17473;DHT22;8853;52.552;13.356;2022-07-23T14:23:22;30.80;29.90
17473;DHT22;8853;52.552;13.356;2022-07-23T14:25:51;30.80;29.90
17473;DHT22;8853;52.552;13.356;2022-07-23T14:28:19;30.80;29.90
17473;DHT22;8853;52.552;13.356;2022-07-23T14:30:48;30.80;29.90
17473;DHT22;8853;52.552;13.356;2022-07-23T14:33:17;30.80;29.90
17473;DHT22;8853;52.552;13.356;2022-07-23T14:35:45;30.80;29.80
17473;DHT22;8853;52.552;13.356;2022-07-23T14:38:14;30.80;29.80
17473;DHT22;8853;52.552;13.356;2022-07-23T14:40:42;30.80;29.80
17473;DHT22;8853;52.552;13.356;2022-07-23T14:43:11;30.90;29.90
17473;DHT22;8853;52.552;13.356;2022-07-23T14:45:40;30.80;29.80
17473;DHT22;8853;52.552;13.356;2022-07-23T14:48:08;30.90;29.80
17473;DHT22;8853;52.552;13.356;2022-07-23T14:50:37;30.80;29.80
17473;DHT22;8853;52.552;13.356;2022-07-23T14:53:06;30.80;29.80
17473;DHT22;8853;52.552;13.356;2022-07-23T14:55:34;30.80;29.80
17473;DHT22;8853;52.552;13.356;2022-07-23T14:58:03;30.80;29.80
17473;DHT22;8853;52.552;13.356;2022-07-23T15:00:31;30.90;29.80
17473;DHT22;8853;52.552;13.356;2022-07-23T15:03:00;30.90;29.80
17473;DHT22;8853;52.552;13.356;2022-07-23T15:05:29;30.90;29.80
17473;DHT22;8853;52.552;13.356;2022-07-23T15:07:57;30.90;29.70
17473;DHT22;8853;52.552;13.356;2022-07-23T15:10:26;30.90;29.70
17473;DHT22;8853;52.552;13.356;2022-07-23T15:12:54;30.90;29.70
17473;DHT22;8853;52.552;13.356;2022-07-23T15:15:23;30.90;29.70
17473;DHT22;8853;52.552;13.356;2022-07-23T15:17:52;30.90;29.80
17473;DHT22;8853;52.552;13.356;2022-07-23T15:20:21;30.90;29.70
17473;DHT22;8853;52.552;13.356;2022-07-23T15:22:49;30.90;29.70
17473;DHT22;8853;52.552;13.356;2022-07-23T15:25:18;30.90;29.70
17473;DHT22;8853;52.552;13.356;2022-07-23T15:27:47;30.90;29.70
17473;DHT22;8853;52.552;13.356;2022-07-23T15:30:15;30.90;29.70
17473;DHT22;8853;52.552;13.356;2022-07-23T15:32:44;30.90;29.70
17473;DHT22;8853;52.552;13.356;2022-07-23T15:35:13;30.90;29.70
17473;DHT22;8853;52.552;13.356;2022-07-23T15:37:42;31.00;30.20
17473;DHT22;8853;52.552;13.356;2022-07-23T15:40:11;31.00;30.20
17473;DHT22;8853;52.552;13.356;2022-07-23T15:42:40;31.00;30.20
17473;DHT22;8853;52.552;13.356;2022-07-23T15:45:09;31.00;30.10
17473;DHT22;8853;52.552;13.356;2022-07-23T15:47:37;31.00;30.10
17473;DHT22;8853;52.552;13.356;2022-07-23T15:50:07;31.00;30.70
17473;DHT22;8853;52.552;13.356;2022-07-23T15:52:35;31.00;30.10
17473;DHT22;8853;52.552;13.356;2022-07-23T15:55:04;31.00;30.10
17473;DHT22;8853;52.552;13.356;2022-07-23T15:57:33;31.00;30.10
17473;DHT22;8853;52.552;13.356;2022-07-23T16:00:03;31.10;30.10
17473;DHT22;8853;52.552;13.356;2022-07-23T16:02:31;31.00;30.70
17473;DHT22;8853;52.552;13.356;2022-07-23T16:05:00;31.00;30.10
17473;DHT22;8853;52.552;13.356;2022-07-23T16:07:28;31.10;30.10
17473;DHT22;8853;52.552;13.356;2022-07-23T16:09:57;31.10;30.00
17473;DHT22;8853;52.552;13.356;2022-07-23T16:12:25;31.10;30.10
17473;DHT22;8853;52.552;13.356;2022-07-23T16:14:54;31.10;30.00
17473;DHT22;8853;52.552;13.356;2022-07-23T16:17:23;31.10;30.00
17473;DHT22;8853;52.552;13.356;2022-07-23T16:19:51;31.10;30.00
17473;DHT22;8853;52.552;13.356;2022-07-23T16:22:20;31.10;30.00
17473;DHT22;8853;52.552;13.356;2022-07-23T16:24:49;31.10;30.00
17473;DHT22;8853;52.552;13.356;2022-07-23T16:27:18;31.10;30.00
17473;DHT22;8853;52.552;13.356;2022-07-23T16:29:46;31.20;30.00